Yardelle, Arkansas
Current Conditions -  °F | °C
As of 8:53 AM on Saturday 25 Oct 2014 (Local Time) from KHRO Reporting Station
Clear Clear  
Wind Chill: 70°   Ceiling: Unl
Heat Index: 70°   Visibility: 10mi
Dew Point: 60°   Wind: 8mph
Humidity: 71%   Direction: 270°W
Pressure: 30.11"   Gusts: NA
Location:  36.0414°N, 92.9867°W
Report Text: KHRO 251353Z AUTO 27007KT 10SM CLR 21/16 A3011 RMK AO2 SLP185 T02110156
Loading
Personal Weather Stations






























Interactive Weather Map
Tropical Storm Tracking
New forecast layout! Learn more

10-Day Weather Forecast

Advertisements
Track Severe Weather on mobile